createdAt,value
2018-12-30T00:00:36.735Z,15.17
2018-12-30T00:03:12.732Z,8.60
2018-12-30T00:05:49.208Z,5.07
2018-12-30T00:10:54.274Z,6.90
2018-12-30T00:13:26.317Z,3.77
2018-12-30T00:15:58.365Z,2.83
2018-12-30T00:18:30.159Z,2.97
2018-12-30T00:21:08.986Z,5.70
2018-12-30T00:25:21.306Z,15.30
2018-12-30T00:27:54.027Z,13.53
2018-12-30T00:30:26.313Z,14.10
2018-12-30T00:32:58.299Z,15.07
2018-12-30T00:35:30.297Z,8.77
2018-12-30T00:38:02.879Z,4.10
2018-12-30T00:40:35.315Z,10.90
2018-12-30T00:43:07.456Z,11.83
2018-12-30T00:45:39.325Z,4.57
2018-12-30T00:48:11.275Z,5.23
2018-12-30T00:50:43.320Z,6.37
2018-12-30T00:53:15.326Z,9.93
2018-12-30T00:55:47.298Z,9.90
2018-12-30T00:58:19.477Z,5.20
2018-12-30T01:00:51.607Z,4.80
2018-12-30T01:03:23.577Z,5.53
2018-12-30T01:05:55.419Z,10.70
2018-12-30T01:08:27.497Z,6.33
2018-12-30T01:10:59.418Z,5.43
2018-12-30T01:13:31.456Z,5.20
2018-12-30T01:16:03.529Z,3.90
2018-12-30T01:18:35.587Z,3.00
2018-12-30T01:21:07.435Z,3.20
2018-12-30T01:26:10.695Z,3.23
2018-12-30T01:28:42.592Z,3.03
2018-12-30T01:31:14.536Z,3.33
2018-12-30T01:33:46.443Z,9.63
2018-12-30T01:36:18.295Z,4.07
2018-12-30T01:38:50.498Z,5.63
2018-12-30T01:41:22.355Z,5.50
2018-12-30T01:43:54.518Z,4.00
2018-12-30T01:46:26.294Z,4.20
2018-12-30T01:48:58.337Z,3.50
2018-12-30T01:51:33.179Z,3.27
2018-12-30T01:54:04.054Z,2.40
2018-12-30T01:56:36.477Z,3.93
2018-12-30T01:59:09.735Z,2.50
2018-12-30T02:04:12.856Z,7.33
2018-12-30T02:06:45.290Z,4.20
2018-12-30T02:09:17.395Z,3.60
2018-12-30T02:11:49.293Z,4.17
2018-12-30T02:14:21.417Z,5.37
2018-12-30T02:16:54.315Z,4.87
2018-12-30T02:19:26.353Z,4.93
2018-12-30T02:21:58.278Z,4.50
2018-12-30T02:24:30.382Z,4.30
2018-12-30T02:27:02.316Z,5.30
2018-12-30T02:29:34.275Z,5.07
2018-12-30T02:32:06.316Z,4.93
2018-12-30T02:34:38.327Z,5.37
2018-12-30T02:37:10.121Z,5.80
2018-12-30T02:39:42.149Z,5.63
2018-12-30T02:42:14.145Z,4.97
2018-12-30T02:44:46.169Z,4.80
2018-12-30T02:47:17.831Z,5.90
2018-12-30T02:49:49.839Z,6.37
2018-12-30T02:52:21.722Z,4.77
2018-12-30T02:54:53.403Z,5.67
2018-12-30T02:57:25.283Z,4.80
2018-12-30T02:59:57.320Z,4.00
2018-12-30T03:02:29.127Z,4.40
2018-12-30T03:05:01.302Z,5.17
2018-12-30T03:07:33.100Z,5.43
2018-12-30T03:10:05.558Z,6.30
2018-12-30T03:12:37.298Z,6.57
2018-12-30T03:15:09.300Z,7.17
2018-12-30T03:17:41.123Z,6.50
2018-12-30T03:20:14.342Z,6.67
2018-12-30T03:22:46.304Z,6.27
2018-12-30T03:25:18.334Z,5.80
2018-12-30T03:27:50.331Z,6.97
2018-12-30T03:30:22.449Z,6.97
2018-12-30T03:32:54.337Z,6.80
2018-12-30T03:35:26.510Z,8.30
2018-12-30T03:37:58.455Z,9.60
2018-12-30T03:40:30.540Z,9.03
2018-12-30T03:43:02.552Z,10.87
2018-12-30T03:45:34.467Z,11.00
2018-12-30T03:48:07.377Z,9.70
2018-12-30T03:50:39.496Z,12.70
2018-12-30T03:53:11.505Z,10.63
2018-12-30T03:55:44.609Z,9.85
2018-12-30T03:58:16.464Z,12.00
2018-12-30T04:00:49.087Z,13.47
2018-12-30T04:03:21.350Z,15.10
2018-12-30T04:05:53.304Z,14.93
2018-12-30T04:08:25.286Z,20.07
2018-12-30T04:10:57.348Z,13.17
2018-12-30T04:13:29.317Z,11.87
2018-12-30T04:16:01.284Z,11.90
2018-12-30T04:18:33.331Z,11.90
2018-12-30T04:21:05.195Z,10.37
2018-12-30T04:23:36.909Z,8.87
2018-12-30T04:26:08.718Z,8.67
2018-12-30T04:28:40.859Z,8.17
2018-12-30T04:31:12.728Z,9.03
2018-12-30T04:36:15.906Z,15.07
2018-12-30T04:38:48.096Z,6.80
2018-12-30T04:41:20.150Z,5.80
2018-12-30T04:43:52.328Z,6.87
2018-12-30T04:46:24.169Z,8.87
2018-12-30T04:48:55.901Z,9.70
2018-12-30T04:51:27.913Z,9.67
2018-12-30T04:54:00.031Z,10.33
2018-12-30T04:56:32.149Z,9.00
2018-12-30T04:59:04.857Z,10.77
2018-12-30T05:01:37.141Z,10.60
2018-12-30T05:04:10.091Z,11.27
2018-12-30T05:06:41.988Z,15.37
2018-12-30T05:09:13.990Z,14.10
2018-12-30T05:11:45.562Z,11.40
2018-12-30T05:14:17.361Z,10.37
2018-12-30T05:16:49.319Z,7.73
2018-12-30T05:19:21.105Z,7.07
2018-12-30T05:21:52.881Z,9.10
2018-12-30T05:24:24.637Z,12.37
2018-12-30T05:26:56.387Z,13.07
2018-12-30T05:29:28.075Z,13.37
2018-12-30T05:32:00.240Z,13.17
2018-12-30T05:34:31.896Z,10.23
2018-12-30T05:39:34.695Z,5.77
2018-12-30T05:42:06.545Z,5.43
2018-12-30T05:44:38.325Z,10.37
2018-12-30T05:47:11.516Z,12.20
2018-12-30T05:49:43.288Z,13.83
2018-12-30T05:52:15.099Z,16.83
2018-12-30T05:54:47.133Z,17.57
2018-12-30T05:57:19.193Z,12.00
2018-12-30T05:59:51.037Z,14.17
2018-12-30T06:02:23.316Z,14.87
2018-12-30T06:04:55.286Z,19.33
2018-12-30T06:09:35.142Z,18.40
2018-12-30T06:12:07.132Z,20.80
2018-12-30T06:14:39.068Z,16.43
2018-12-30T06:17:11.075Z,13.63
2018-12-30T06:19:42.905Z,13.23
2018-12-30T06:22:15.129Z,17.57
2018-12-30T06:24:47.092Z,24.73
2018-12-30T06:27:19.136Z,18.87
2018-12-30T06:29:51.008Z,20.43
2018-12-30T06:32:23.054Z,15.67
2018-12-30T06:34:55.048Z,13.63
2018-12-30T06:37:27.041Z,11.17
2018-12-30T06:39:59.095Z,12.23
2018-12-30T06:42:31.354Z,11.97
2018-12-30T06:45:03.321Z,12.20
2018-12-30T06:47:35.132Z,11.83
2018-12-30T06:52:34.808Z,12.60
2018-12-30T06:55:07.132Z,11.73
2018-12-30T06:57:39.314Z,11.80
2018-12-30T07:00:11.284Z,15.80
2018-12-30T07:02:43.099Z,12.80
2018-12-30T07:05:15.040Z,10.00
2018-12-30T07:07:47.114Z,6.87
2018-12-30T07:10:19.149Z,17.13
2018-12-30T07:12:54.519Z,8.47
2018-12-30T07:15:26.310Z,20.23
2018-12-30T07:17:58.191Z,15.83
2018-12-30T07:20:30.568Z,13.70
2018-12-30T07:23:06.037Z,12.30
2018-12-30T07:25:36.337Z,10.90
2018-12-30T07:28:08.308Z,6.77
2018-12-30T07:30:40.409Z,8.07
2018-12-30T07:33:12.329Z,7.60
2018-12-30T07:35:46.050Z,34.60
2018-12-30T07:38:18.148Z,18.50
2018-12-30T07:40:50.087Z,23.17
2018-12-30T07:43:21.828Z,16.60
2018-12-30T07:45:53.696Z,14.15
2018-12-30T07:48:25.480Z,22.67
2018-12-30T07:50:57.625Z,32.47
2018-12-30T07:53:29.312Z,28.47
2018-12-30T07:56:01.560Z,26.60
2018-12-30T07:58:33.382Z,44.13
2018-12-30T08:01:05.458Z,60.47
2018-12-30T08:03:38.168Z,57.93
2018-12-30T08:06:10.092Z,38.23
2018-12-30T08:08:42.086Z,38.27
2018-12-30T08:11:14.900Z,38.73
2018-12-30T08:13:47.010Z,43.57
2018-12-30T08:16:19.059Z,38.07
2018-12-30T08:18:51.319Z,15.40
2018-12-30T08:21:23.420Z,15.43
2018-12-30T08:23:55.914Z,21.03
2018-12-30T08:26:32.454Z,23.40
2018-12-30T08:29:04.518Z,19.83
2018-12-30T08:31:36.543Z,32.13
2018-12-30T08:34:08.354Z,22.00
2018-12-30T08:36:40.434Z,19.53
2018-12-30T08:39:12.472Z,14.57
2018-12-30T08:41:44.295Z,10.73
2018-12-30T08:44:16.316Z,7.03
2018-12-30T08:46:48.575Z,70.10
2018-12-30T08:49:20.549Z,17.00
2018-12-30T08:51:52.285Z,16.10
2018-12-30T08:54:23.923Z,9.20
2018-12-30T08:59:27.147Z,10.27
2018-12-30T09:01:59.139Z,11.90
2018-12-30T09:04:31.634Z,5.65
2018-12-30T09:07:03.721Z,5.35
2018-12-30T09:14:37.640Z,5.80
2018-12-30T09:17:09.578Z,18.07
2018-12-30T09:19:41.584Z,17.43
2018-12-30T09:22:13.359Z,3.63
2018-12-30T09:24:45.302Z,4.13
2018-12-30T09:27:17.359Z,3.10
2018-12-30T09:29:49.509Z,6.80
2018-12-30T09:32:21.326Z,4.42
2018-12-30T22:38:38.216Z,2.50
